Wetterdaten: September 2010
Datum Temp. A. Feuchte A. Luftdruck Regen Wind Richtung Taupunkt Windchill Windben
03.09.2010 16,4 C 78 % 1016,1 hPa 0,0 l/m 1,3 km/h S 12,2 C 16,4 C 0,7 km/h
04.09.2010 15,8 C 75 % 1016,9 hPa 0,0 l/m 1,5 km/h O 10,8 C 15,8 C 0,8 km/h
05.09.2010 15,5 C 76 % 1016,7 hPa 0,0 l/m 1,1 km/h W-NW 10,9 C 15,5 C 0,6 km/h
06.09.2010 17,4 C 57 % 1011,0 hPa 0,4 l/m 11,6 km/h SO 7,7 C 15,0 C 6,4 km/h
07.09.2010 17,0 C 86 % 1003,5 hPa 6,1 l/m 1,1 km/h SO 14,6 C 17,0 C 0,6 km/h
08.09.2010 16,0 C 76 % 1006,5 hPa 3,2 l/m 10,2 km/h W-SW 11,6 C 13,7 C 5,7 km/h
09.09.2010 14,1 C 83 % 1016,3 hPa 0,7 l/m 1,9 km/h S-SW 11,2 C 14,1 C 1,1 km/h
10.09.2010 15,9 C 76 % 1020,8 hPa 0,0 l/m 0,0 km/h SO 10,9 C 15,9 C 0,0 km/h
11.09.2010 17,0 C 77 % 1017,8 hPa 0,0 l/m 0,6 km/h SO 12,4 C 17,0 C 0,3 km/h
12.09.2010 16,2 C 79 % 1018,6 hPa 8,2 l/m 0,5 km/h W 11,9 C 16,2 C 0,3 km/h
13.09.2010 14,1 C 78 % 1024,8 hPa 1,1 l/m 0,0 km/h N-NO 9,8 C 14,1 C 0,0 km/h
14.09.2010 16,1 C 71 % 1021,5 hPa 0,0 l/m 14,9 km/h SW 10,5 C 13,1 C 8,3 km/h
15.09.2010 14,8 C 76 % 1013,5 hPa 0,0 l/m 27,1 km/h S-SW 10,4 C 8,9 C 15,1 km/h
16.09.2010 13,3 C 77 % 1012,1 hPa 0,0 l/m 1,1 km/h W 9,0 C 13,3 C 0,6 km/h
17.09.2010 13,6 C 73 % 1014,1 hPa 0,0 l/m 1,0 km/h SO 8,3 C 13,6 C 0,6 km/h
18.09.2010 10,6 C 75 % 1016,0 hPa 0,0 l/m 4,2 km/h N 6,0 C 9,8 C 2,3 km/h
19.09.2010 10,6 C 75 % 1017,6 hPa 0,0 l/m 0,0 km/h NO 5,8 C 10,6 C 0,0 km/h
20.09.2010 13,1 C 74 % 1016,4 hPa 0,0 l/m 1,0 km/h SO 7,9 C 13,1 C 0,6 km/h
21.09.2010 14,8 C 77 % 1018,1 hPa 0,0 l/m 0,0 km/h NO 10,3 C 14,8 C 0,0 km/h
22.09.2010 15,3 C 76 % 1017,7 hPa 0,0 l/m 1,8 km/h N-NO 10,5 C 15,3 C 1,0 km/h
23.09.2010 16,9 C 75 % 1010,7 hPa 0,0 l/m 4,1 km/h NO 11,7 C 16,6 C 2,3 km/h
24.09.2010 13,7 C 86 % 1003,3 hPa 2,8 l/m 10,2 km/h SW 11,5 C 11,0 C 5,7 km/h
25.09.2010 11,2 C 87 % 1005,3 hPa 4,6 l/m 5,2 km/h W-SW 9,0 C 9,9 C 2,9 km/h
26.09.2010 8,7 C 85 % 1009,1 hPa 0,0 l/m 0,6 km/h SO 6,3 C 8,7 C 0,4 km/h
27.09.2010 8,8 C 82 % 1011,4 hPa 0,4 l/m 0,6 km/h SO 5,7 C 8,8 C 0,3 km/h
28.09.2010 10,3 C 81 % 1016,5 hPa 0,0 l/m 0,0 km/h O-NO 7,0 C 10,3 C 0,0 km/h
29.09.2010 10,9 C 82 % 1017,4 hPa 0,0 l/m 0,0 km/h SO 7,8 C 10,9 C 0,0 km/h
30.09.2010 13,7 C 83 % 1014,3 hPa 0,7 l/m 0,5 km/h SO 10,7 C 13,7 C 0,3 km/h
Min-Datum 27.09.10 06.09.10 08.09.10 10 Tage 03.09.10 - 27.09.10 27.09.10 03.09.10
Min-Zeit 07:30 15:30 05:30 - 02:30 - 07:30 07:30 02:30
Minimum 2,9 C 30 % 1000,6 hPa - 0,0 km/h - 1,7 C 2,9 C 0,0 km/h
Max-Datum 12.09.10 27.09.10 14.09.10 12.09.10 12.09.10 - 07.09.10 12.09.10 12.09.10
Max-Zeit 16:30 09:30 00:30 22:30 20:30 - 14:30 16:30 20:30
Maximum 31,8 C 93 % 1025,9 hPa 8,2 l/m 64,2 km/h
W
- 17,1 C 31,8 C 35,6 km/h
W
Durchschnitt 14,0 C 78 % 1014,4 hPa #28,1 l/m 3,6 km/h SO 9,7 C 13,3 C 2,0 km/h

Durchschnitt Minimum Temp.8,6 C
Durchschnitt Maximum Temp.24,3 C